Time;durP1;ratioP1;P1;durP2;ratioP2;P2;SDS_P1;SDS_P2;PMS_P1;PMS_P2;Temp;Humidity;BMP_temperature;BMP_pressure;BME280_temperature;BME280_humidity;BME280_pressure;Samples;Min_cycle;Max_cycle;Signal;HPM_P1;HPM_P2
2021/10/10 00:02:15;;;;;;;16.52;11.27;;;;;;;;;;5023315;28;20017;-86
2021/10/10 00:04:40;;;;;;;17.45;12.18;;;;;;;;;;5029260;28;20497;-86
2021/10/10 00:07:06;;;;;;;14.87;10.57;;;;;;;;;;5030723;28;20065;-86
2021/10/10 00:09:31;;;;;;;14.68;10.70;;;;;;;;;;5034617;28;20276;-86
2021/10/10 00:11:56;;;;;;;15.40;11.63;;;;;;;;;;5031129;28;20022;-86
2021/10/10 00:14:22;;;;;;;20.77;10.68;;;;;;;;;;5024265;28;20104;-86
2021/10/10 00:16:47;;;;;;;17.92;11.30;;;;;;;;;;5029275;28;20596;-86
2021/10/10 00:19:13;;;;;;;17.95;10.75;;;;;;;;;;5030723;28;20856;-86
2021/10/10 00:21:38;;;;;;;14.70;10.52;;;;;;;;;;5026263;28;20373;-86
2021/10/10 00:24:03;;;;;;;17.35;11.25;;;;;;;;;;5021530;28;20095;-86
2021/10/10 00:26:29;;;;;;;23.15;12.07;;;;;;;;;;5029563;28;20123;-86
2021/10/10 00:28:54;;;;;;;16.65;11.70;;;;;;;;;;5029344;28;20111;-86
2021/10/10 00:31:20;;;;;;;38.25;12.30;;;;;;;;;;5023646;28;20485;-86
2021/10/10 00:33:46;;;;;;;19.48;10.65;;;;;;;;;;5012796;28;20099;-86
2021/10/10 00:36:12;;;;;;;17.23;11.80;;;;;;;;;;5030468;28;20056;-86
2021/10/10 00:38:37;;;;;;;16.73;11.30;;;;;;;;;;5030502;28;20017;-86
2021/10/10 00:41:04;;;;;;;14.57;11.05;;;;;;;;;;5021190;28;20540;-86
2021/10/10 00:43:29;;;;;;;23.23;11.10;;;;;;;;;;5032270;28;20021;-86
2021/10/10 00:45:54;;;;;;;26.33;10.63;;;;;;;;;;5030158;28;20744;-86
2021/10/10 00:48:20;;;;;;;17.47;10.47;;;;;;;;;;5031170;28;20298;-86
2021/10/10 00:50:45;;;;;;;16.93;10.70;;;;;;;;;;5029980;28;20257;-86
2021/10/10 00:53:11;;;;;;;20.98;12.25;;;;;;;;;;5026833;28;20829;-86
2021/10/10 00:55:36;;;;;;;18.98;11.95;;;;;;;;;;5034710;28;20381;-86
2021/10/10 00:58:01;;;;;;;19.52;11.48;;;;;;;;;;5024895;28;20564;-86
2021/10/10 01:00:27;;;;;;;14.27;10.32;;;;;;;;;;5032791;28;20112;-86
2021/10/10 01:02:57;;;;;;;16.65;11.07;;;;;;;;;;5034900;28;20053;-86
2021/10/10 01:05:22;;;;;;;18.73;11.38;;;;;;;;;;5034306;28;20017;-86
2021/10/10 01:07:48;;;;;;;18.85;11.35;;;;;;;;;;5034108;28;20083;-86
2021/10/10 01:10:14;;;;;;;14.95;10.70;;;;;;;;;;5033923;28;20025;-86
2021/10/10 01:12:40;;;;;;;17.17;11.63;;;;;;;;;;5034003;28;20021;-86
2021/10/10 01:15:06;;;;;;;16.85;9.70;;;;;;;;;;5025205;28;20022;-86
2021/10/10 01:17:31;;;;;;;21.15;11.75;;;;;;;;;;5036486;28;20378;-86
2021/10/10 01:19:57;;;;;;;20.43;11.47;;;;;;;;;;5033826;28;20074;-86
2021/10/10 01:22:22;;;;;;;16.65;11.73;;;;;;;;;;5027204;28;20323;-86
2021/10/10 01:24:48;;;;;;;14.50;11.03;;;;;;;;;;5032211;28;20063;-86
2021/10/10 01:27:14;;;;;;;12.70;9.95;;;;;;;;;;5033597;28;20780;-86
2021/10/10 01:29:39;;;;;;;15.68;11.00;;;;;;;;;;5033565;28;20025;-86
2021/10/10 01:32:05;;;;;;;18.85;13.00;;;;;;;;;;5033737;28;20022;-86
2021/10/10 01:34:30;;;;;;;17.15;12.40;;;;;;;;;;5028242;28;20030;-86
2021/10/10 01:36:55;;;;;;;20.73;11.50;;;;;;;;;;5032137;28;20091;-86
2021/10/10 01:39:20;;;;;;;15.13;11.30;;;;;;;;;;5028263;28;20052;-86
2021/10/10 01:41:46;;;;;;;13.63;10.70;;;;;;;;;;5032059;28;20346;-86
2021/10/10 01:44:12;;;;;;;19.17;10.73;;;;;;;;;;5025373;28;20021;-86
2021/10/10 01:46:37;;;;;;;16.05;10.57;;;;;;;;;;5031544;28;20049;-86
2021/10/10 01:49:02;;;;;;;14.57;9.80;;;;;;;;;;5033373;28;20527;-86
2021/10/10 01:51:28;;;;;;;14.07;10.57;;;;;;;;;;5033309;28;20109;-86
2021/10/10 01:53:53;;;;;;;14.17;10.20;;;;;;;;;;5033253;28;20620;-86
2021/10/10 01:56:18;;;;;;;15.07;11.32;;;;;;;;;;5036841;28;20270;-86
2021/10/10 01:58:43;;;;;;;18.17;11.13;;;;;;;;;;5034673;28;20116;-86
2021/10/10 02:01:08;;;;;;;15.13;10.80;;;;;;;;;;5036178;28;20244;-86
2021/10/10 02:03:33;;;;;;;20.43;11.50;;;;;;;;;;5031417;28;20334;-86
2021/10/10 02:05:59;;;;;;;14.18;11.43;;;;;;;;;;5035215;28;20256;-86
2021/10/10 02:08:24;;;;;;;14.93;10.47;;;;;;;;;;5027145;28;20531;-86
2021/10/10 02:10:49;;;;;;;16.27;10.43;;;;;;;;;;5031494;28;20301;-86
2021/10/10 02:13:14;;;;;;;15.20;10.83;;;;;;;;;;5026025;28;20663;-86
2021/10/10 02:15:39;;;;;;;16.85;11.52;;;;;;;;;;5032841;28;20260;-86
2021/10/10 02:18:05;;;;;;;14.77;11.27;;;;;;;;;;5032817;28;20025;-86
2021/10/10 02:20:30;;;;;;;16.88;11.80;;;;;;;;;;5032865;28;20021;-86
2021/10/10 02:22:56;;;;;;;13.40;10.98;;;;;;;;;;5032617;28;20033;-86
2021/10/10 02:25:21;;;;;;;14.50;10.48;;;;;;;;;;5026062;28;20025;-86
2021/10/10 02:27:46;;;;;;;17.43;10.80;;;;;;;;;;5031196;28;20123;-86
2021/10/10 02:30:11;;;;;;;13.33;10.40;;;;;;;;;;5032961;28;20264;-86
2021/10/10 02:32:36;;;;;;;15.30;10.60;;;;;;;;;;5032516;28;20260;-86
2021/10/10 02:35:02;;;;;;;15.07;10.80;;;;;;;;;;5023109;28;20477;-86
2021/10/10 02:37:27;;;;;;;17.65;11.20;;;;;;;;;;5032424;28;20249;-86
2021/10/10 02:39:52;;;;;;;12.53;10.10;;;;;;;;;;5032419;28;20151;-86
2021/10/10 02:42:17;;;;;;;16.05;11.77;;;;;;;;;;5025149;28;20268;-86
2021/10/10 02:44:43;;;;;;;14.25;11.93;;;;;;;;;;5032144;28;20033;-86
2021/10/10 02:47:08;;;;;;;14.93;10.80;;;;;;;;;;5032258;28;20037;-86
2021/10/10 02:49:33;;;;;;;16.13;11.73;;;;;;;;;;5032933;28;20260;-86
2021/10/10 02:51:58;;;;;;;18.27;12.23;;;;;;;;;;5030765;28;20331;-86
2021/10/10 02:54:23;;;;;;;16.40;11.13;;;;;;;;;;5032028;28;20033;-86
2021/10/10 02:56:48;;;;;;;16.53;11.57;;;;;;;;;;5032107;28;20483;-86
2021/10/10 02:59:14;;;;;;;16.02;11.13;;;;;;;;;;5031919;28;20264;-86
2021/10/10 03:01:39;;;;;;;14.68;11.45;;;;;;;;;;5027891;28;20063;-86
2021/10/10 03:04:04;;;;;;;14.63;11.60;;;;;;;;;;5031915;28;20036;-86
2021/10/10 03:06:29;;;;;;;16.87;10.20;;;;;;;;;;5032437;28;20069;-86
2021/10/10 03:08:55;;;;;;;18.08;11.57;;;;;;;;;;5029609;28;20276;-86
2021/10/10 03:11:20;;;;;;;17.08;11.25;;;;;;;;;;5031775;28;20026;-86
2021/10/10 03:13:46;;;;;;;17.63;11.82;;;;;;;;;;5031722;28;20025;-86
2021/10/10 03:16:11;;;;;;;15.27;10.95;;;;;;;;;;5023105;28;20458;-86
2021/10/10 03:18:36;;;;;;;19.15;12.05;;;;;;;;;;5031728;28;20032;-86
2021/10/10 03:21:01;;;;;;;18.02;10.75;;;;;;;;;;5031606;28;20021;-86
2021/10/10 03:23:27;;;;;;;19.02;12.30;;;;;;;;;;5025622;28;20030;-86
2021/10/10 03:25:52;;;;;;;15.80;11.05;;;;;;;;;;5031001;28;20021;-85
2021/10/10 03:28:17;;;;;;;16.13;11.18;;;;;;;;;;5025750;28;20037;-86
2021/10/10 03:30:42;;;;;;;16.43;11.33;;;;;;;;;;5031368;28;20025;-86
2021/10/10 03:33:08;;;;;;;20.88;12.00;;;;;;;;;;5031399;28;20267;-86
2021/10/10 03:35:34;;;;;;;19.67;12.02;;;;;;;;;;5026326;28;20026;-86
2021/10/10 03:38:01;;;;;;;16.80;11.48;;;;;;;;;;5031545;28;20045;-86
2021/10/10 03:40:26;;;;;;;15.18;10.40;;;;;;;;;;5025599;28;20075;-86
2021/10/10 03:42:52;;;;;;;18.67;10.98;;;;;;;;;;5033500;28;20638;-86
2021/10/10 03:45:17;;;;;;;18.58;11.10;;;;;;;;;;5031026;28;20042;-86
2021/10/10 03:47:42;;;;;;;17.17;11.47;;;;;;;;;;5031106;28;20688;-86
2021/10/10 03:50:07;;;;;;;14.65;11.38;;;;;;;;;;5030967;28;20271;-86
2021/10/10 03:52:33;;;;;;;14.10;10.93;;;;;;;;;;5031052;28;20060;-86
2021/10/10 03:57:42;;;;;;;17.17;12.15;;;;;;;;;;5031298;28;20032;-86
2021/10/10 04:00:12;;;;;;;18.15;11.45;;;;;;;;;;5022972;28;20457;-86
2021/10/10 04:02:37;;;;;;;23.05;12.93;;;;;;;;;;5029761;28;20029;-86
2021/10/10 04:05:04;;;;;;;15.27;10.80;;;;;;;;;;5021639;28;20017;-86
2021/10/10 04:07:30;;;;;;;16.73;11.75;;;;;;;;;;5029304;28;20060;-86
2021/10/10 04:09:55;;;;;;;14.73;10.87;;;;;;;;;;5030566;28;20044;-86
2021/10/10 04:12:20;;;;;;;15.73;11.95;;;;;;;;;;5024097;28;20272;-86
2021/10/10 04:14:45;;;;;;;16.87;10.63;;;;;;;;;;5030691;28;20029;-86
2021/10/10 04:17:10;;;;;;;18.75;11.63;;;;;;;;;;5022769;28;20756;-86
2021/10/10 04:19:36;;;;;;;17.30;11.27;;;;;;;;;;5030586;28;20017;-86
2021/10/10 04:22:01;;;;;;;16.00;11.70;;;;;;;;;;5021259;28;20060;-86
2021/10/10 04:24:26;;;;;;;13.50;10.85;;;;;;;;;;5030669;28;20520;-86
2021/10/10 04:26:51;;;;;;;17.85;11.95;;;;;;;;;;5027362;28;20056;-86
2021/10/10 04:29:17;;;;;;;19.30;12.25;;;;;;;;;;5023370;28;20802;-86
2021/10/10 04:31:42;;;;;;;18.57;12.30;;;;;;;;;;5029087;28;20467;-86
2021/10/10 04:34:07;;;;;;;17.80;12.57;;;;;;;;;;5021882;28;20299;-86
2021/10/10 04:36:32;;;;;;;17.87;12.03;;;;;;;;;;5029073;28;20481;-86
2021/10/10 04:38:57;;;;;;;17.77;12.03;;;;;;;;;;5031124;28;20291;-86
2021/10/10 04:41:22;;;;;;;17.70;11.70;;;;;;;;;;5030266;28;20261;-86
2021/10/10 04:43:48;;;;;;;17.60;12.05;;;;;;;;;;5030316;28;20389;-86
2021/10/10 04:46:13;;;;;;;16.90;12.52;;;;;;;;;;5030013;28;20053;-86
2021/10/10 04:48:38;;;;;;;18.55;11.73;;;;;;;;;;5030210;28;20032;-87
2021/10/10 04:51:04;;;;;;;18.50;11.95;;;;;;;;;;5021252;28;20050;-86
2021/10/10 04:53:30;;;;;;;18.52;12.00;;;;;;;;;;5030242;28;20468;-86
2021/10/10 04:55:55;;;;;;;19.80;12.20;;;;;;;;;;5030259;28;20683;-86
2021/10/10 04:58:20;;;;;;;19.25;12.50;;;;;;;;;;5030134;28;20363;-86
2021/10/10 05:00:45;;;;;;;18.33;12.25;;;;;;;;;;5026848;28;20033;-86
2021/10/10 05:03:10;;;;;;;17.25;12.27;;;;;;;;;;5030085;28;20477;-86
2021/10/10 05:05:36;;;;;;;16.33;12.23;;;;;;;;;;5030121;28;20026;-86
2021/10/10 05:08:01;;;;;;;20.98;12.00;;;;;;;;;;5022931;28;20302;-86
2021/10/10 05:10:26;;;;;;;17.87;12.40;;;;;;;;;;5030037;28;20437;-86
2021/10/10 05:12:51;;;;;;;16.95;11.85;;;;;;;;;;5029754;28;20323;-86
2021/10/10 05:15:17;;;;;;;19.73;12.90;;;;;;;;;;5029781;28;20021;-86
2021/10/10 05:17:42;;;;;;;17.70;12.43;;;;;;;;;;5026345;28;20798;-86
2021/10/10 05:20:07;;;;;;;22.83;12.93;;;;;;;;;;5021633;28;20017;-86
2021/10/10 05:22:33;;;;;;;18.55;12.20;;;;;;;;;;5029993;28;20122;-86
2021/10/10 05:24:59;;;;;;;18.52;13.45;;;;;;;;;;5030030;28;20108;-86
2021/10/10 05:27:24;;;;;;;19.42;13.20;;;;;;;;;;5023543;28;20037;-86
2021/10/10 05:29:50;;;;;;;18.35;11.45;;;;;;;;;;5028349;28;20806;-86
2021/10/10 05:32:15;;;;;;;18.33;12.10;;;;;;;;;;5029666;28;20022;-86
2021/10/10 05:34:40;;;;;;;20.53;12.00;;;;;;;;;;5029768;28;20432;-86
2021/10/10 05:37:05;;;;;;;23.60;12.43;;;;;;;;;;5029891;28;20335;-86
2021/10/10 05:39:30;;;;;;;17.30;12.07;;;;;;;;;;5032697;28;20252;-86
2021/10/10 05:41:56;;;;;;;19.70;12.20;;;;;;;;;;5033604;28;20740;-86
2021/10/10 05:44:21;;;;;;;19.23;11.57;;;;;;;;;;5033506;28;20021;-86
2021/10/10 05:46:46;;;;;;;18.00;12.70;;;;;;;;;;5033139;28;20890;-86
2021/10/10 05:49:11;;;;;;;15.57;11.63;;;;;;;;;;5033500;28;20268;-86
2021/10/10 05:51:36;;;;;;;16.50;12.27;;;;;;;;;;5033298;28;20025;-86
2021/10/10 05:54:03;;;;;;;16.08;12.25;;;;;;;;;;5033221;28;20256;-86
2021/10/10 05:56:28;;;;;;;14.63;11.57;;;;;;;;;;5027564;28;20029;-86
2021/10/10 05:59:02;;;;;;;14.43;11.82;;;;;;;;;;5033459;28;20109;-86
2021/10/10 06:01:27;;;;;;;15.70;11.68;;;;;;;;;;5033200;28;20026;-86
2021/10/10 06:03:52;;;;;;;14.13;10.67;;;;;;;;;;5033027;28;20051;-86
2021/10/10 06:06:17;;;;;;;16.33;12.37;;;;;;;;;;5033037;28;20261;-86
2021/10/10 06:08:43;;;;;;;18.77;11.37;;;;;;;;;;5033165;28;20104;-86
2021/10/10 06:11:10;;;;;;;22.00;12.60;;;;;;;;;;5024444;28;20798;-86
2021/10/10 06:13:35;;;;;;;20.25;12.05;;;;;;;;;;5032815;28;20318;-86
2021/10/10 06:16:00;;;;;;;13.57;11.38;;;;;;;;;;5023491;28;20022;-86
2021/10/10 06:18:25;;;;;;;15.77;11.70;;;;;;;;;;5031326;28;20028;-86
2021/10/10 06:20:50;;;;;;;16.17;10.85;;;;;;;;;;5031043;28;20272;-86
2021/10/10 06:23:16;;;;;;;21.13;12.13;;;;;;;;;;5025290;28;20021;-86
2021/10/10 06:25:41;;;;;;;17.87;10.40;;;;;;;;;;5030958;28;20723;-86
2021/10/10 06:28:06;;;;;;;16.52;10.43;;;;;;;;;;5032184;28;20303;-86
2021/10/10 06:30:31;;;;;;;15.77;11.95;;;;;;;;;;5027475;28;20036;-86
2021/10/10 06:32:57;;;;;;;18.52;11.75;;;;;;;;;;5031514;28;20120;-86
2021/10/10 06:35:23;;;;;;;14.35;10.95;;;;;;;;;;5026000;28;20021;-86
2021/10/10 06:37:48;;;;;;;17.38;12.55;;;;;;;;;;5030955;28;20072;-86
2021/10/10 06:40:13;;;;;;;14.02;11.18;;;;;;;;;;5032396;28;20558;-86
2021/10/10 06:42:38;;;;;;;14.50;11.03;;;;;;;;;;5032366;28;20204;-86
2021/10/10 06:45:04;;;;;;;18.85;11.68;;;;;;;;;;5025053;28;20296;-86
2021/10/10 06:47:29;;;;;;;16.75;11.88;;;;;;;;;;5030771;28;20033;-86
2021/10/10 06:49:54;;;;;;;15.45;11.50;;;;;;;;;;5031159;28;20067;-86
2021/10/10 06:52:20;;;;;;;16.25;10.93;;;;;;;;;;5025256;28;20036;-86
2021/10/10 06:54:45;;;;;;;16.60;11.53;;;;;;;;;;5032081;28;20024;-86
2021/10/10 06:57:10;;;;;;;18.08;12.07;;;;;;;;;;5032050;28;20292;-86
2021/10/10 06:59:35;;;;;;;17.85;12.10;;;;;;;;;;5027205;28;20018;-86
2021/10/10 07:02:01;;;;;;;17.85;11.35;;;;;;;;;;5022448;28;20101;-86
2021/10/10 07:04:26;;;;;;;18.33;10.70;;;;;;;;;;5031939;28;20028;-86
2021/10/10 07:06:51;;;;;;;17.43;11.73;;;;;;;;;;5029446;28;20507;-87
2021/10/10 07:09:16;;;;;;;22.27;15.07;;;;;;;;;;5027915;28;20283;-85
2021/10/10 07:11:42;;;;;;;16.93;12.73;;;;;;;;;;5039198;28;20025;-86
2021/10/10 07:14:07;;;;;;;15.77;11.10;;;;;;;;;;5023584;28;20271;-86
2021/10/10 07:16:34;;;;;;;20.63;13.85;;;;;;;;;;5031055;28;20457;-86
2021/10/10 07:19:00;;;;;;;19.30;12.25;;;;;;;;;;5030939;28;20033;-86
2021/10/10 07:21:40;;;;;;;20.98;12.65;;;;;;;;;;5030205;28;20079;-86
2021/10/10 07:26:50;;;;;;;15.25;10.07;;;;;;;;;;5031762;28;20463;-89
2021/10/10 07:29:15;;;;;;;16.40;10.98;;;;;;;;;;5032229;28;20006;-88
2021/10/10 07:31:40;;;;;;;15.97;11.43;;;;;;;;;;5036608;28;20025;-88
2021/10/10 07:34:06;;;;;;;14.83;11.53;;;;;;;;;;5031376;28;20071;-87
2021/10/10 07:36:31;;;;;;;17.80;11.60;;;;;;;;;;5031373;28;20260;-88
2021/10/10 07:38:56;;;;;;;16.42;10.25;;;;;;;;;;5031232;28;20354;-88
2021/10/10 07:41:21;;;;;;;14.73;11.02;;;;;;;;;;5024461;28;20021;-86
2021/10/10 07:43:46;;;;;;;16.17;10.57;;;;;;;;;;5030963;28;20022;-88
2021/10/10 07:46:23;;;;;;;18.40;12.13;;;;;;;;;;5022909;28;20367;-85
2021/10/10 07:48:48;;;;;;;15.40;11.40;;;;;;;;;;5035975;28;20076;-88
2021/10/10 07:51:14;;;;;;;17.23;11.50;;;;;;;;;;5030893;28;20583;-86
2021/10/10 07:53:39;;;;;;;15.05;11.88;;;;;;;;;;5026791;28;20121;-86
2021/10/10 07:56:05;;;;;;;15.37;11.47;;;;;;;;;;5021857;28;20100;-86
2021/10/10 07:58:30;;;;;;;15.48;11.73;;;;;;;;;;5028881;28;20294;-85
2021/10/10 08:00:55;;;;;;;13.50;10.93;;;;;;;;;;5028934;28;20033;-85
2021/10/10 08:03:20;;;;;;;17.33;11.18;;;;;;;;;;5024178;28;20779;-86
2021/10/10 08:05:45;;;;;;;13.07;10.90;;;;;;;;;;5030839;28;20466;-86
2021/10/10 08:08:11;;;;;;;14.30;11.10;;;;;;;;;;5023100;28;20383;-86
2021/10/10 08:10:37;;;;;;;15.27;10.93;;;;;;;;;;5033221;28;20261;-86
2021/10/10 08:13:03;;;;;;;15.20;10.55;;;;;;;;;;5030583;28;20029;-86
2021/10/10 08:15:28;;;;;;;15.13;11.20;;;;;;;;;;5024851;28;20760;-86
2021/10/10 08:17:56;;;;;;;18.52;11.40;;;;;;;;;;5030646;28;20064;-85
2021/10/10 08:20:21;;;;;;;16.20;11.93;;;;;;;;;;5024143;28;20070;-86
2021/10/10 08:22:48;;;;;;;14.82;11.75;;;;;;;;;;5030340;28;20056;-86
2021/10/10 08:25:14;;;;;;;14.20;11.50;;;;;;;;;;5030323;28;20032;-85
2021/10/10 08:27:44;;;;;;;16.80;11.50;;;;;;;;;;5030263;28;20030;-86
2021/10/10 08:30:13;;;;;;;18.05;11.60;;;;;;;;;;5030543;28;20052;-86
2021/10/10 08:32:38;;;;;;;13.85;11.45;;;;;;;;;;5030130;28;20384;-85
2021/10/10 08:35:04;;;;;;;17.45;12.52;;;;;;;;;;5030097;28;20021;-86
2021/10/10 08:37:29;;;;;;;15.73;12.05;;;;;;;;;;5025046;28;20028;-86
2021/10/10 08:40:02;;;;;;;17.05;11.90;;;;;;;;;;5028843;28;20021;-86
2021/10/10 08:42:31;;;;;;;19.65;12.10;;;;;;;;;;5030683;28;20100;-86
2021/10/10 08:45:05;;;;;;;17.35;12.52;;;;;;;;;;5030820;28;20057;-86
2021/10/10 08:47:31;;;;;;;17.42;11.23;;;;;;;;;;5045004;28;20041;-86
2021/10/10 08:49:56;;;;;;;19.88;13.00;;;;;;;;;;5048004;28;20044;-86
2021/10/10 08:52:22;;;;;;;14.93;11.77;;;;;;;;;;5055170;28;20079;-86
2021/10/10 08:54:47;;;;;;;16.83;11.27;;;;;;;;;;5046882;28;20017;-86
2021/10/10 08:57:13;;;;;;;17.77;12.23;;;;;;;;;;5049924;28;20033;-86
2021/10/10 08:59:40;;;;;;;15.32;12.00;;;;;;;;;;5045654;28;20036;-86
2021/10/10 09:02:08;;;;;;;15.75;11.27;;;;;;;;;;5040862;28;20021;-86
2021/10/10 09:04:40;;;;;;;20.90;12.00;;;;;;;;;;5049915;28;20092;-86
2021/10/10 09:07:05;;;;;;;;;;;;;;;;;;5041904;28;20039;-86
2021/10/10 09:09:35;;;;;;;17.52;11.70;;;;;;;;;;5056953;28;19909;-86
2021/10/10 09:12:05;;;;;;;15.27;11.77;;;;;;;;;;5050220;28;20783;-87
2021/10/10 09:14:40;;;;;;;17.67;11.82;;;;;;;;;;5047253;28;20032;-86
2021/10/10 09:17:10;;;;;;;18.45;11.73;;;;;;;;;;5053488;28;20029;-86
2021/10/10 09:19:35;;;;;;;17.02;11.85;;;;;;;;;;5053471;28;20020;-86
2021/10/10 09:22:02;;;;;;;19.85;12.15;;;;;;;;;;5044316;28;20021;-86
2021/10/10 09:24:27;;;;;;;17.67;11.98;;;;;;;;;;5053831;28;20028;-86
2021/10/10 09:26:53;;;;;;;16.75;11.82;;;;;;;;;;5053503;28;20025;-87
2021/10/10 09:29:31;;;;;;;14.88;11.43;;;;;;;;;;5053686;28;20025;-87
2021/10/10 09:32:03;;;;;;;15.40;11.70;;;;;;;;;;5036841;28;20027;-86
2021/10/10 09:34:28;;;;;;;15.80;12.63;;;;;;;;;;5033668;28;20021;-86
2021/10/10 09:36:55;;;;;;;15.13;11.88;;;;;;;;;;5039544;28;20009;-86
2021/10/10 09:39:25;;;;;;;17.60;11.85;;;;;;;;;;5043031;28;20856;-85
2021/10/10 09:41:54;;;;;;;16.77;12.13;;;;;;;;;;5033574;28;20029;-86
2021/10/10 09:44:22;;;;;;;17.13;12.65;;;;;;;;;;5026321;28;20030;-86
2021/10/10 09:46:49;;;;;;;15.13;11.85;;;;;;;;;;5038651;28;20048;-86
2021/10/10 09:49:25;;;;;;;18.40;13.43;;;;;;;;;;5045387;28;20070;-86
2021/10/10 09:51:51;;;;;;;14.50;11.50;;;;;;;;;;5052939;28;20021;-86
2021/10/10 09:54:16;;;;;;;20.23;12.93;;;;;;;;;;5062582;28;20052;-86
2021/10/10 09:57:02;;;;;;;18.38;12.90;;;;;;;;;;5049136;28;20098;-86
2021/10/10 09:59:27;;;;;;;15.70;12.55;;;;;;;;;;5035118;28;20493;-86
2021/10/10 10:01:53;;;;;;;20.42;12.02;;;;;;;;;;5052893;28;20021;-86
2021/10/10 10:04:18;;;;;;;18.50;12.00;;;;;;;;;;5047045;28;20021;-86
2021/10/10 10:06:43;;;;;;;16.93;11.57;;;;;;;;;;5055219;28;20029;-86
2021/10/10 10:09:11;;;;;;;18.58;12.85;;;;;;;;;;5049483;28;20618;-86
2021/10/10 10:11:46;;;;;;;14.88;11.43;;;;;;;;;;5051957;28;20043;-86
2021/10/10 10:14:15;;;;;;;19.83;12.93;;;;;;;;;;5052700;28;20017;-86
2021/10/10 10:16:42;;;;;;;14.57;12.02;;;;;;;;;;5048556;28;20112;-86
2021/10/10 10:19:14;;;;;;;15.93;12.32;;;;;;;;;;5052723;28;20018;-86
2021/10/10 10:21:39;;;;;;;20.55;12.20;;;;;;;;;;5029682;28;20029;-86
2021/10/10 10:24:07;;;;;;;16.13;12.50;;;;;;;;;;5045953;28;20072;-86
2021/10/10 10:26:34;;;;;;;18.00;11.38;;;;;;;;;;5046711;28;20716;-86
2021/10/10 10:29:03;;;;;;;18.90;12.13;;;;;;;;;;5053553;28;20025;-86
2021/10/10 10:31:32;;;;;;;14.55;12.30;;;;;;;;;;5052138;28;20043;-86
2021/10/10 10:34:18;;;;;;;17.73;11.20;;;;;;;;;;5050246;28;20021;-86
2021/10/10 10:37:02;;;;;;;21.42;11.40;;;;;;;;;;5051366;28;20037;-86
2021/10/10 10:39:34;;;;;;;15.43;11.40;;;;;;;;;;5052152;28;20017;-86
2021/10/10 10:41:59;;;;;;;15.38;10.77;;;;;;;;;;5053797;28;20021;-86
2021/10/10 10:44:45;;;;;;;17.60;10.55;;;;;;;;;;5052115;28;20038;-86
2021/10/10 10:47:14;;;;;;;16.33;10.25;;;;;;;;;;5040559;28;20539;-86
2021/10/10 10:49:43;;;;;;;16.73;10.77;;;;;;;;;;5027924;28;20022;-86
2021/10/10 10:52:23;;;;;;;15.88;10.85;;;;;;;;;;5024209;28;20076;-86
2021/10/10 10:54:51;;;;;;;15.52;9.88;;;;;;;;;;5031871;28;20029;-86
2021/10/10 10:57:29;;;;;;;14.02;10.10;;;;;;;;;;5032916;28;20014;-86
2021/10/10 10:59:59;;;;;;;15.07;10.50;;;;;;;;;;5029894;28;20033;-86
2021/10/10 11:02:44;;;;;;;18.88;10.60;;;;;;;;;;5032255;28;20044;-86
2021/10/10 11:05:09;;;;;;;16.40;10.18;;;;;;;;;;5023163;28;20465;-86
2021/10/10 11:07:34;;;;;;;16.27;10.03;;;;;;;;;;5031956;28;20036;-86
2021/10/10 11:10:06;;;;;;;14.23;11.20;;;;;;;;;;5039224;28;20267;-86
2021/10/10 11:12:32;;;;;;;11.70;9.60;;;;;;;;;;5052663;28;20040;-86
2021/10/10 11:15:00;;;;;;;13.27;10.13;;;;;;;;;;5059054;28;20037;-86
2021/10/10 11:17:25;;;;;;;14.68;10.55;;;;;;;;;;5045381;28;20025;-86
2021/10/10 11:19:51;;;;;;;16.38;10.25;;;;;;;;;;5049840;28;20024;-86
2021/10/10 11:22:16;;;;;;;14.50;9.30;;;;;;;;;;5044109;28;20547;-86
2021/10/10 11:24:45;;;;;;;14.30;10.30;;;;;;;;;;5051043;28;20020;-86
2021/10/10 11:27:12;;;;;;;13.77;10.27;;;;;;;;;;5044825;28;20306;-86
2021/10/10 11:29:37;;;;;;;19.20;9.48;;;;;;;;;;5056417;28;20104;-86
2021/10/10 11:32:03;;;;;;;17.55;9.70;;;;;;;;;;5037686;28;20443;-86
2021/10/10 11:34:28;;;;;;;14.63;10.02;;;;;;;;;;5033655;28;20365;-86
2021/10/10 11:36:55;;;;;;;15.07;9.48;;;;;;;;;;5033601;28;20021;-86
2021/10/10 11:39:27;;;;;;;17.08;9.57;;;;;;;;;;5033432;28;20116;-86
2021/10/10 11:42:03;;;;;;;14.93;10.68;;;;;;;;;;5034201;28;20079;-86
2021/10/10 11:44:36;;;;;;;15.60;10.10;;;;;;;;;;5031885;28;20021;-86
2021/10/10 11:47:04;;;;;;;14.25;9.73;;;;;;;;;;5035736;28;20056;-86
2021/10/10 11:49:56;;;;;;;13.25;9.32;;;;;;;;;;5052705;28;20461;-86
2021/10/10 11:52:36;;;;;;;14.40;9.60;;;;;;;;;;5049167;28;20021;-86
2021/10/10 11:57:42;;;;;;;12.98;9.73;;;;;;;;;;5033309;28;20030;-86
2021/10/10 12:00:09;;;;;;;13.23;9.60;;;;;;;;;;5046824;28;20028;-86
2021/10/10 12:02:36;;;;;;;18.38;9.80;;;;;;;;;;5031846;28;20045;-86
2021/10/10 12:05:02;;;;;;;11.23;9.25;;;;;;;;;;5032953;28;20406;-86
2021/10/10 12:07:29;;;;;;;14.50;9.27;;;;;;;;;;5027384;28;20034;-86
2021/10/10 12:09:54;;;;;;;12.80;8.85;;;;;;;;;;5032002;28;20025;-86
2021/10/10 12:12:20;;;;;;;14.45;9.45;;;;;;;;;;5032387;28;20064;-86
2021/10/10 12:14:47;;;;;;;12.60;9.68;;;;;;;;;;5029764;28;20531;-86
2021/10/10 12:17:26;;;;;;;14.57;9.10;;;;;;;;;;5031891;28;20028;-86
2021/10/10 12:19:51;;;;;;;12.90;8.48;;;;;;;;;;5027781;28;20024;-86
2021/10/10 12:22:16;;;;;;;13.35;9.68;;;;;;;;;;5022701;28;20021;-86
2021/10/10 12:24:43;;;;;;;10.32;8.70;;;;;;;;;;5029924;28;20103;-86
2021/10/10 12:27:08;;;;;;;10.82;8.10;;;;;;;;;;5021570;28;20034;-86
2021/10/10 12:29:34;;;;;;;14.30;8.93;;;;;;;;;;5028401;28;20790;-87
2021/10/10 12:32:18;;;;;;;13.40;8.60;;;;;;;;;;5029775;28;20720;-87
2021/10/10 12:34:44;;;;;;;9.90;8.35;;;;;;;;;;5026444;28;20032;-87
2021/10/10 12:37:18;;;;;;;8.50;7.57;;;;;;;;;;5029570;28;20029;-87
2021/10/10 12:39:43;;;;;;;9.25;8.32;;;;;;;;;;5029868;28;20055;-87
2021/10/10 12:42:09;;;;;;;12.52;8.60;;;;;;;;;;5029460;28;20029;-87
2021/10/10 12:44:34;;;;;;;14.52;9.38;;;;;;;;;;5028108;28;20025;-87
2021/10/10 12:47:00;;;;;;;11.85;8.68;;;;;;;;;;5019773;28;20053;-87
2021/10/10 12:49:32;;;;;;;10.50;7.53;;;;;;;;;;5031349;28;20026;-87
2021/10/10 12:51:58;;;;;;;8.52;7.10;;;;;;;;;;5032268;28;20022;-87
2021/10/10 12:54:24;;;;;;;11.20;8.18;;;;;;;;;;5033652;28;20147;-87
2021/10/10 12:56:56;;;;;;;7.90;7.15;;;;;;;;;;5033555;28;20100;-87
2021/10/10 12:59:25;;;;;;;8.75;7.18;;;;;;;;;;5033639;28;20091;-87
2021/10/10 13:01:50;;;;;;;9.07;8.18;;;;;;;;;;5032418;28;20124;-87
2021/10/10 13:04:16;;;;;;;11.23;8.40;;;;;;;;;;5026318;28;20108;-87
2021/10/10 13:06:45;;;;;;;8.27;7.18;;;;;;;;;;5032129;28;20025;-87
2021/10/10 13:09:11;;;;;;;7.88;7.07;;;;;;;;;;5025194;28;20045;-87
2021/10/10 13:11:36;;;;;;;12.88;7.90;;;;;;;;;;5031919;28;20028;-87
2021/10/10 13:14:02;;;;;;;10.65;8.27;;;;;;;;;;5033818;28;20025;-88
2021/10/10 13:16:27;;;;;;;11.17;8.50;;;;;;;;;;5033721;28;20380;-87
2021/10/10 13:18:52;;;;;;;12.17;7.47;;;;;;;;;;5033354;28;20264;-87
2021/10/10 13:21:17;;;;;;;13.17;8.53;;;;;;;;;;5026152;28;20794;-88
2021/10/10 13:23:42;;;;;;;13.85;8.18;;;;;;;;;;5033224;28;20033;-87
2021/10/10 13:26:08;;;;;;;8.97;7.83;;;;;;;;;;5024655;28;20018;-87
2021/10/10 13:28:34;;;;;;;10.15;8.60;;;;;;;;;;5031466;28;20505;-87
2021/10/10 13:31:04;;;;;;;11.63;8.90;;;;;;;;;;5032884;28;20072;-87
2021/10/10 13:33:33;;;;;;;9.07;8.18;;;;;;;;;;5032949;28;20079;-88
2021/10/10 13:35:59;;;;;;;10.70;8.63;;;;;;;;;;5032766;28;20697;-88
2021/10/10 13:38:25;;;;;;;11.68;9.02;;;;;;;;;;5037116;28;20021;-85
2021/10/10 13:40:50;;;;;;;14.98;9.40;;;;;;;;;;5050369;28;20463;-85
2021/10/10 13:43:16;;;;;;;10.05;8.77;;;;;;;;;;5045523;28;20112;-85
2021/10/10 13:45:41;;;;;;;9.95;8.95;;;;;;;;;;5051211;28;20525;-85
2021/10/10 13:48:06;;;;;;;11.90;9.13;;;;;;;;;;5052440;28;20052;-85
2021/10/10 13:50:33;;;;;;;14.67;9.40;;;;;;;;;;5047330;28;20063;-85
2021/10/10 13:53:01;;;;;;;12.00;9.70;;;;;;;;;;5051134;28;20477;-85
2021/10/10 13:55:27;;;;;;;12.65;9.73;;;;;;;;;;5050700;28;20116;-85
2021/10/10 13:57:52;;;;;;;10.60;8.65;;;;;;;;;;5052471;28;20100;-85
2021/10/10 14:00:17;;;;;;;11.23;9.73;;;;;;;;;;5028629;28;20013;-84
2021/10/10 14:02:43;;;;;;;11.85;9.38;;;;;;;;;;5050953;28;20291;-85
2021/10/10 14:05:08;;;;;;;10.52;9.38;;;;;;;;;;5044069;28;20021;-85
2021/10/10 14:07:36;;;;;;;10.77;9.25;;;;;;;;;;5052227;28;20242;-85
2021/10/10 14:10:01;;;;;;;15.10;9.45;;;;;;;;;;5052026;28;20028;-85
2021/10/10 14:12:26;;;;;;;10.90;9.88;;;;;;;;;;5052403;28;20444;-85
2021/10/10 14:14:55;;;;;;;11.77;9.27;;;;;;;;;;5049745;28;20084;-85
2021/10/10 14:17:20;;;;;;;12.57;9.05;;;;;;;;;;5052133;28;20043;-85
2021/10/10 14:19:46;;;;;;;12.13;8.83;;;;;;;;;;5048774;28;20025;-85
2021/10/10 14:22:11;;;;;;;10.57;9.37;;;;;;;;;;5044340;28;20075;-87
2021/10/10 14:24:36;;;;;;;15.20;8.63;;;;;;;;;;5053847;28;20020;-85
2021/10/10 14:27:01;;;;;;;11.50;9.90;;;;;;;;;;5053491;28;20283;-86